createdAt,value
2022-09-24T00:00:06.940Z,10.19
2022-09-24T00:01:06.980Z,10.21
2022-09-24T00:02:06.970Z,10.21
2022-09-24T00:03:06.978Z,10.22
2022-09-24T00:04:06.936Z,10.19
2022-09-24T00:05:06.935Z,10.17
2022-09-24T00:06:06.872Z,10.17
2022-09-24T00:07:06.912Z,10.15
2022-09-24T00:08:06.874Z,10.12
2022-09-24T00:09:06.851Z,10.12
2022-09-24T00:10:06.843Z,10.12
2022-09-24T00:11:06.833Z,10.12
2022-09-24T00:12:06.964Z,10.12
2022-09-24T00:13:06.781Z,10.14
2022-09-24T00:14:06.870Z,10.14
2022-09-24T00:15:06.756Z,10.15
2022-09-24T00:16:06.775Z,10.15
2022-09-24T00:17:06.724Z,10.17
2022-09-24T00:18:06.894Z,10.19
2022-09-24T00:19:06.726Z,10.19
2022-09-24T00:20:06.730Z,10.19
2022-09-24T00:21:06.685Z,10.22
2022-09-24T00:22:06.688Z,10.22
2022-09-24T00:23:06.689Z,10.25
2022-09-24T00:24:06.699Z,10.25
2022-09-24T00:25:06.626Z,10.22
2022-09-24T00:26:06.615Z,10.21
2022-09-24T00:27:06.636Z,10.21
2022-09-24T00:28:06.619Z,10.18
2022-09-24T00:29:06.605Z,10.18
2022-09-24T00:30:06.624Z,10.18
2022-09-24T00:31:06.644Z,10.19
2022-09-24T00:32:06.558Z,10.21
2022-09-24T00:33:06.568Z,10.21
2022-09-24T00:34:06.621Z,10.22
2022-09-24T00:35:06.576Z,10.19
2022-09-24T00:36:06.505Z,10.21
2022-09-24T00:37:06.495Z,10.18
2022-09-24T00:38:06.477Z,10.18
2022-09-24T00:39:06.468Z,10.15
2022-09-24T00:40:06.519Z,10.14
2022-09-24T00:41:06.477Z,10.12
2022-09-24T00:42:06.437Z,10.14
2022-09-24T00:43:06.430Z,10.14
2022-09-24T00:44:06.525Z,10.14
2022-09-24T00:45:06.399Z,10.15
2022-09-24T00:46:06.388Z,10.15
2022-09-24T00:47:06.485Z,10.15
2022-09-24T00:48:06.394Z,10.12
2022-09-24T00:49:06.366Z,10.14
2022-09-24T00:50:06.397Z,10.12
2022-09-24T00:51:06.346Z,10.12
2022-09-24T00:52:06.318Z,10.10
2022-09-24T00:53:06.331Z,10.14
2022-09-24T00:54:06.424Z,10.12
2022-09-24T00:55:06.285Z,10.15
2022-09-24T00:56:06.271Z,10.17
2022-09-24T00:57:06.259Z,10.18
2022-09-24T00:58:06.250Z,10.17
2022-09-24T00:59:06.272Z,10.14
2022-09-24T01:00:06.218Z,10.14
2022-09-24T01:01:06.254Z,10.12
2022-09-24T01:02:06.266Z,10.12
2022-09-24T01:03:06.238Z,10.15
2022-09-24T01:04:06.324Z,10.15
2022-09-24T01:05:06.249Z,10.15
2022-09-24T01:06:06.160Z,10.17
2022-09-24T01:07:06.142Z,10.17
2022-09-24T01:08:06.120Z,10.15
2022-09-24T01:09:06.124Z,10.15
2022-09-24T01:10:06.103Z,10.14
2022-09-24T01:11:06.192Z,10.14
2022-09-24T01:12:06.096Z,10.14
2022-09-24T01:13:06.092Z,10.14
2022-09-24T01:14:06.187Z,10.14
2022-09-24T01:15:06.053Z,10.15
2022-09-24T01:16:06.104Z,10.15
2022-09-24T01:17:06.063Z,10.17
2022-09-24T01:18:06.014Z,10.17
2022-09-24T01:19:06.018Z,10.17
2022-09-24T01:20:05.984Z,10.17
2022-09-24T01:21:05.984Z,10.17
2022-09-24T01:22:05.994Z,10.15
2022-09-24T01:23:05.977Z,10.14
2022-09-24T01:24:06.023Z,10.14
2022-09-24T01:25:05.980Z,10.12
2022-09-24T01:26:05.936Z,10.10
2022-09-24T01:27:05.923Z,10.09
2022-09-24T01:28:05.931Z,10.07
2022-09-24T01:29:05.889Z,10.06
2022-09-24T01:30:05.888Z,10.06
2022-09-24T01:31:05.880Z,10.04
2022-09-24T01:32:05.900Z,10.04
2022-09-24T01:33:05.845Z,10.06
2022-09-24T01:34:05.846Z,10.04
2022-09-24T01:35:05.816Z,10.04
2022-09-24T01:36:05.808Z,10.01
2022-09-24T01:37:05.799Z,10.03
2022-09-24T01:38:05.779Z,10.04
2022-09-24T01:39:05.767Z,10.06
2022-09-24T01:40:05.864Z,10.04
2022-09-24T01:41:05.764Z,10.04
2022-09-24T01:42:05.740Z,10.04
2022-09-24T01:43:05.726Z,10.03
2022-09-24T01:44:05.706Z,10.03
2022-09-24T01:45:05.708Z,10.01
2022-09-24T01:46:05.827Z,10.00
2022-09-24T01:47:05.678Z,10.00
2022-09-24T01:48:05.656Z,10.00
2022-09-24T01:49:05.647Z,10.00
2022-09-24T01:50:05.639Z,9.99
2022-09-24T01:51:05.661Z,9.97
2022-09-24T01:52:05.618Z,9.94
2022-09-24T01:53:05.611Z,9.93
2022-09-24T01:54:05.639Z,9.89
2022-09-24T01:55:05.581Z,9.83
2022-09-24T01:56:05.568Z,9.83
2022-09-24T01:57:05.570Z,9.82
2022-09-24T01:58:05.568Z,9.82
2022-09-24T01:59:05.530Z,9.81
2022-09-24T02:00:05.529Z,9.83
2022-09-24T02:01:05.574Z,9.83
2022-09-24T02:02:05.553Z,9.82
2022-09-24T02:03:05.509Z,9.86
2022-09-24T02:04:05.568Z,9.83
2022-09-24T02:05:05.461Z,9.82
2022-09-24T02:06:05.462Z,9.82
2022-09-24T02:07:05.435Z,9.79
2022-09-24T02:08:05.430Z,9.81
2022-09-24T02:09:05.475Z,9.81
2022-09-24T02:10:05.417Z,9.81
2022-09-24T02:11:05.391Z,9.81
2022-09-24T02:12:05.397Z,9.81
2022-09-24T02:13:05.371Z,9.79
2022-09-24T02:14:05.427Z,9.76
2022-09-24T02:15:05.425Z,9.73
2022-09-24T02:16:05.430Z,9.71
2022-09-24T02:17:05.349Z,9.70
2022-09-24T02:18:05.333Z,9.68
2022-09-24T02:19:05.303Z,9.66
2022-09-24T02:20:05.808Z,9.64
2022-09-24T02:21:05.302Z,9.61
2022-09-24T02:22:05.292Z,9.63
2022-09-24T02:23:05.277Z,9.63
2022-09-24T02:24:05.326Z,9.63
2022-09-24T02:25:05.274Z,9.63
2022-09-24T02:26:05.277Z,9.61
2022-09-24T02:27:05.214Z,9.58
2022-09-24T02:28:05.222Z,9.60
2022-09-24T02:29:05.192Z,9.56
2022-09-24T02:30:05.193Z,9.57
2022-09-24T02:31:05.270Z,9.61
2022-09-24T02:32:05.173Z,9.63
2022-09-24T02:33:05.147Z,9.61
2022-09-24T02:34:05.231Z,9.61
2022-09-24T02:35:05.155Z,9.60
2022-09-24T02:36:05.201Z,9.58
2022-09-24T02:37:05.163Z,9.56
2022-09-24T02:38:06.300Z,9.53
2022-09-24T02:39:05.067Z,9.50
2022-09-24T02:40:05.218Z,9.49
2022-09-24T02:41:05.055Z,9.46
2022-09-24T02:42:05.047Z,9.49
2022-09-24T02:43:05.057Z,9.50
2022-09-24T02:44:05.100Z,9.48
2022-09-24T02:45:05.019Z,9.45
2022-09-24T02:46:05.047Z,9.42
2022-09-24T02:47:04.987Z,9.39
2022-09-24T02:48:04.984Z,9.39
2022-09-24T02:49:04.977Z,9.39
2022-09-24T02:50:04.987Z,9.35
2022-09-24T02:51:04.937Z,9.35
2022-09-24T02:52:04.954Z,9.32
2022-09-24T02:53:04.908Z,9.32
2022-09-24T02:54:04.969Z,9.31
2022-09-24T02:55:04.923Z,9.28
2022-09-24T02:56:04.883Z,9.28
2022-09-24T02:57:04.871Z,9.27
2022-09-24T02:58:04.869Z,9.23
2022-09-24T02:59:04.851Z,9.21
2022-09-24T03:00:04.839Z,9.18
2022-09-24T03:01:04.840Z,9.16
2022-09-24T03:02:05.044Z,9.15
2022-09-24T03:03:04.866Z,9.12
2022-09-24T03:04:04.888Z,9.12
2022-09-24T03:05:04.779Z,9.09
2022-09-24T03:06:04.816Z,9.10
2022-09-24T03:07:04.799Z,9.12
2022-09-24T03:08:04.741Z,9.12
2022-09-24T03:09:04.729Z,9.09
2022-09-24T03:10:04.712Z,9.04
2022-09-24T03:11:04.700Z,8.96
2022-09-24T03:12:04.708Z,8.94
2022-09-24T03:13:04.758Z,8.93
2022-09-24T03:14:04.670Z,8.90
2022-09-24T03:15:04.679Z,8.87
2022-09-24T03:16:04.732Z,8.86
2022-09-24T03:17:04.625Z,8.84
2022-09-24T03:18:04.620Z,8.79
2022-09-24T03:19:04.680Z,8.78
2022-09-24T03:20:04.607Z,8.75
2022-09-24T03:21:04.592Z,8.73
2022-09-24T03:22:04.622Z,8.72
2022-09-24T03:23:04.581Z,8.72
2022-09-24T03:24:04.695Z,8.73
2022-09-24T03:25:05.513Z,8.75
2022-09-24T03:26:04.552Z,8.75
2022-09-24T03:27:04.510Z,8.68
2022-09-24T03:28:04.531Z,8.62
2022-09-24T03:29:04.501Z,8.57
2022-09-24T03:30:04.521Z,8.51
2022-09-24T03:31:04.582Z,8.47
2022-09-24T03:32:04.490Z,8.45
2022-09-24T03:33:04.480Z,8.45
2022-09-24T03:34:04.464Z,8.42
2022-09-24T03:35:04.500Z,8.42
2022-09-24T03:36:04.450Z,8.40
2022-09-24T03:37:04.440Z,8.39
2022-09-24T03:38:04.422Z,8.45
2022-09-24T03:39:04.401Z,8.51
2022-09-24T03:40:05.189Z,8.54
2022-09-24T03:41:04.403Z,8.54
2022-09-24T03:42:04.385Z,8.51
2022-09-24T03:43:04.345Z,8.47
2022-09-24T03:44:04.327Z,8.40
2022-09-24T03:45:04.433Z,8.36
2022-09-24T03:46:04.361Z,8.33
2022-09-24T03:47:04.335Z,8.32
2022-09-24T03:48:04.295Z,8.33
2022-09-24T03:49:04.265Z,8.32
2022-09-24T03:50:04.273Z,8.30
2022-09-24T03:51:04.255Z,8.28
2022-09-24T03:52:04.246Z,8.26
2022-09-24T03:53:04.285Z,8.25
2022-09-24T03:54:04.234Z,8.21
2022-09-24T03:55:04.215Z,8.20
2022-09-24T03:56:04.228Z,8.18
2022-09-24T03:57:04.178Z,8.20
2022-09-24T03:58:04.185Z,8.17
2022-09-24T03:59:04.218Z,8.17
2022-09-24T04:00:04.138Z,8.15
2022-09-24T04:01:04.125Z,8.14
2022-09-24T04:02:04.164Z,8.15
2022-09-24T04:03:04.151Z,8.17
2022-09-24T04:04:04.085Z,8.15
2022-09-24T04:05:04.117Z,8.15
2022-09-24T04:06:04.070Z,8.12
2022-09-24T04:07:04.049Z,8.12
2022-09-24T04:08:04.038Z,8.10
2022-09-24T04:09:04.026Z,8.10
2022-09-24T04:10:04.037Z,8.08
2022-09-24T04:11:04.039Z,8.08
2022-09-24T04:12:03.998Z,8.07
2022-09-24T04:13:03.985Z,8.08
2022-09-24T04:14:03.975Z,8.12
2022-09-24T04:15:03.968Z,8.17
2022-09-24T04:16:04.036Z,8.18
2022-09-24T04:17:03.927Z,8.21
2022-09-24T04:18:03.940Z,8.18
2022-09-24T04:19:03.909Z,8.15
2022-09-24T04:20:03.897Z,8.12
2022-09-24T04:21:03.898Z,8.08
2022-09-24T04:22:03.928Z,8.03
2022-09-24T04:23:03.867Z,8.00
2022-09-24T04:24:03.848Z,7.99
2022-09-24T04:25:03.864Z,7.96
2022-09-24T04:26:03.834Z,7.94
2022-09-24T04:27:03.821Z,7.93
2022-09-24T04:28:03.839Z,7.94
2022-09-24T04:29:03.803Z,7.99
2022-09-24T04:30:03.783Z,8.02
2022-09-24T04:31:03.898Z,8.00
2022-09-24T04:32:03.760Z,7.99
2022-09-24T04:33:03.751Z,7.97
2022-09-24T04:34:03.810Z,7.99
2022-09-24T04:35:07.524Z,7.99
2022-09-24T04:36:03.729Z,7.99
2022-09-24T04:37:03.714Z,7.99
2022-09-24T04:38:03.702Z,8.00
2022-09-24T04:39:03.688Z,8.00
2022-09-24T04:40:03.694Z,8.02
2022-09-24T04:41:03.664Z,8.00
2022-09-24T04:42:03.650Z,8.03
2022-09-24T04:43:03.649Z,8.04
2022-09-24T04:44:03.635Z,8.08
2022-09-24T04:45:03.643Z,8.07
2022-09-24T04:46:03.663Z,8.08
2022-09-24T04:47:03.619Z,8.04
2022-09-24T04:48:03.595Z,8.03
2022-09-24T04:49:03.572Z,8.00
2022-09-24T04:50:03.554Z,8.00
2022-09-24T04:51:03.580Z,8.00
2022-09-24T04:52:03.588Z,8.00
2022-09-24T04:53:03.536Z,8.00
2022-09-24T04:54:03.502Z,7.96
2022-09-24T04:55:03.494Z,7.92
2022-09-24T04:56:03.491Z,7.89
2022-09-24T04:57:03.494Z,7.87
2022-09-24T04:58:03.478Z,7.85
2022-09-24T04:59:03.455Z,7.85
2022-09-24T05:00:03.455Z,7.84
2022-09-24T05:01:03.440Z,7.84
2022-09-24T05:02:09.174Z,7.82
2022-09-24T05:03:04.535Z,7.82
2022-09-24T05:04:03.405Z,7.84
2022-09-24T05:05:03.396Z,7.85
2022-09-24T05:06:03.385Z,7.82
2022-09-24T05:07:03.364Z,7.82
2022-09-24T05:08:03.377Z,7.81
2022-09-24T05:09:03.334Z,7.82
2022-09-24T05:10:03.327Z,7.82
2022-09-24T05:11:03.319Z,7.81
2022-09-24T05:12:03.297Z,7.78
2022-09-24T05:13:03.306Z,7.79
2022-09-24T05:14:03.305Z,7.81
2022-09-24T05:15:03.266Z,7.84
2022-09-24T05:16:03.342Z,7.90
2022-09-24T05:17:03.259Z,7.89
2022-09-24T05:18:03.238Z,7.90
2022-09-24T05:19:03.285Z,7.89
2022-09-24T05:20:03.255Z,7.90
2022-09-24T05:21:03.197Z,7.93
2022-09-24T05:22:03.187Z,7.94
2022-09-24T05:23:03.199Z,7.94
2022-09-24T05:24:03.165Z,7.96
2022-09-24T05:25:03.215Z,7.97
2022-09-24T05:26:03.147Z,7.97
2022-09-24T05:27:03.136Z,8.00
2022-09-24T05:28:03.199Z,8.00
2022-09-24T05:29:03.118Z,8.02
2022-09-24T05:30:03.104Z,8.07
2022-09-24T05:31:03.188Z,8.08
2022-09-24T05:32:03.080Z,8.10
2022-09-24T05:33:03.062Z,8.12
2022-09-24T05:34:03.059Z,8.15
2022-09-24T05:35:03.039Z,8.15
2022-09-24T05:36:03.049Z,8.18
2022-09-24T05:37:03.053Z,8.20
2022-09-24T05:38:03.012Z,8.21
2022-09-24T05:39:03.012Z,8.26
2022-09-24T05:40:02.988Z,8.29
2022-09-24T05:41:02.978Z,8.29
2022-09-24T05:42:03.051Z,8.29
2022-09-24T05:43:02.958Z,8.29
2022-09-24T05:44:02.951Z,8.29
2022-09-24T05:45:02.949Z,8.29
2022-09-24T05:46:02.995Z,8.29
2022-09-24T05:47:02.920Z,8.29
2022-09-24T05:48:02.923Z,8.30
2022-09-24T05:49:02.888Z,8.35
2022-09-24T05:50:02.869Z,8.39
2022-09-24T05:51:02.860Z,8.40
2022-09-24T05:52:02.847Z,8.44
2022-09-24T05:53:02.839Z,8.48
2022-09-24T05:54:03.089Z,8.51
2022-09-24T05:55:02.802Z,8.55
2022-09-24T05:56:02.791Z,8.58
2022-09-24T05:57:02.794Z,8.63
2022-09-24T05:58:02.779Z,8.69
2022-09-24T05:59:02.773Z,8.72
2022-09-24T06:00:02.802Z,8.75
2022-09-24T06:01:02.741Z,8.76
2022-09-24T06:02:02.786Z,8.78
2022-09-24T06:03:02.810Z,8.79
2022-09-24T06:04:07.799Z,8.84
2022-09-24T06:05:03.729Z,8.87
2022-09-24T06:06:02.716Z,8.88
2022-09-24T06:07:02.673Z,8.90
2022-09-24T06:08:02.704Z,8.94
2022-09-24T06:09:02.672Z,8.97
2022-09-24T06:10:02.643Z,9.01
2022-09-24T06:11:02.713Z,9.06
2022-09-24T06:12:02.625Z,9.12
2022-09-24T06:13:02.625Z,9.13
2022-09-24T06:14:02.612Z,9.16
2022-09-24T06:15:02.584Z,9.23
2022-09-24T06:16:02.677Z,9.25
2022-09-24T06:17:02.625Z,9.25
2022-09-24T06:18:02.545Z,9.32
2022-09-24T06:19:02.647Z,9.35
2022-09-24T06:20:02.562Z,9.40
2022-09-24T06:21:02.530Z,9.43
2022-09-24T06:22:02.505Z,9.46
2022-09-24T06:23:02.537Z,9.45
2022-09-24T06:24:02.529Z,9.50
2022-09-24T06:25:02.509Z,9.58
2022-09-24T06:26:02.480Z,9.63
2022-09-24T06:27:02.447Z,9.68
2022-09-24T06:28:02.475Z,9.71
2022-09-24T06:29:05.132Z,9.76
2022-09-24T06:30:02.421Z,9.76
2022-09-24T06:31:02.494Z,9.78
2022-09-24T06:32:02.433Z,9.79
2022-09-24T06:33:02.405Z,9.78
2022-09-24T06:34:02.448Z,9.82
2022-09-24T06:35:02.354Z,9.88
2022-09-24T06:36:02.378Z,9.94
2022-09-24T06:37:02.407Z,9.97
2022-09-24T06:38:02.305Z,9.99
2022-09-24T06:39:02.393Z,10.01
2022-09-24T06:40:02.435Z,10.01
2022-09-24T06:41:02.433Z,10.07
2022-09-24T06:42:02.316Z,10.12
2022-09-24T06:43:02.278Z,10.14
2022-09-24T06:44:02.244Z,10.15
2022-09-24T06:45:02.307Z,10.18
2022-09-24T06:46:02.287Z,10.22
2022-09-24T06:47:02.340Z,10.25
2022-09-24T06:48:02.264Z,10.24
2022-09-24T06:49:02.228Z,10.25
2022-09-24T06:50:02.247Z,10.18
2022-09-24T06:51:02.255Z,10.18
2022-09-24T06:52:02.151Z,10.21
2022-09-24T06:53:02.169Z,10.28
2022-09-24T06:54:02.148Z,10.37
2022-09-24T06:55:02.109Z,10.36
2022-09-24T06:56:02.158Z,10.32
2022-09-24T06:57:02.123Z,10.28
2022-09-24T06:58:02.117Z,10.37
2022-09-24T06:59:02.342Z,10.44
2022-09-24T07:00:02.059Z,10.51
2022-09-24T07:01:02.144Z,10.47
2022-09-24T07:02:02.197Z,10.51
2022-09-24T07:03:02.055Z,10.53
2022-09-24T07:04:02.093Z,10.58
2022-09-24T07:05:02.002Z,10.60
2022-09-24T07:06:02.035Z,10.56
2022-09-24T07:07:02.033Z,10.56
2022-09-24T07:08:02.042Z,10.63
2022-09-24T07:09:02.059Z,10.65
2022-09-24T07:10:02.009Z,10.68
2022-09-24T07:11:01.967Z,10.74
2022-09-24T07:12:01.953Z,10.83
2022-09-24T07:13:01.913Z,10.88
2022-09-24T07:14:01.942Z,10.84
2022-09-24T07:15:01.981Z,10.95
2022-09-24T07:16:02.161Z,11.01
2022-09-24T07:17:01.929Z,10.99
2022-09-24T07:18:01.873Z,11.02
2022-09-24T07:19:01.940Z,11.11
2022-09-24T07:20:02.018Z,11.10
2022-09-24T07:21:01.887Z,11.19
2022-09-24T07:22:02.002Z,11.28
2022-09-24T07:23:01.853Z,11.32
2022-09-24T07:24:01.798Z,11.32
2022-09-24T07:25:02.148Z,11.44
2022-09-24T07:26:01.852Z,11.56
2022-09-24T07:27:01.806Z,11.67
2022-09-24T07:28:01.975Z,11.67
2022-09-24T07:29:01.780Z,11.74
2022-09-24T07:30:01.887Z,11.77
2022-09-24T07:31:01.794Z,11.85
2022-09-24T07:32:01.896Z,11.94
2022-09-24T07:33:01.773Z,12.04
2022-09-24T07:34:01.830Z,12.12
2022-09-24T07:35:01.825Z,12.24
2022-09-24T07:36:01.725Z,12.27
2022-09-24T07:37:01.725Z,12.37
2022-09-24T07:38:01.728Z,12.38
2022-09-24T07:39:01.712Z,12.34
2022-09-24T07:40:01.907Z,12.37
2022-09-24T07:41:01.729Z,12.42
2022-09-24T07:42:01.717Z,12.39
2022-09-24T07:43:01.618Z,12.42
2022-09-24T07:44:01.665Z,12.56
2022-09-24T07:45:01.684Z,12.64
2022-09-24T07:46:01.626Z,12.64
2022-09-24T07:47:01.646Z,12.57
2022-09-24T07:48:01.692Z,12.64
2022-09-24T07:49:01.512Z,12.67
2022-09-24T07:50:01.569Z,12.71
2022-09-24T07:51:01.702Z,12.85
2022-09-24T07:52:01.718Z,12.96
2022-09-24T07:53:01.680Z,13.09
2022-09-24T07:54:01.685Z,13.24
2022-09-24T07:55:01.531Z,13.25
2022-09-24T07:56:01.456Z,13.20
2022-09-24T07:57:01.533Z,13.12
2022-09-24T07:58:01.451Z,13.06
2022-09-24T07:59:01.447Z,12.96
2022-09-24T08:00:01.586Z,13.09
2022-09-24T08:01:01.424Z,13.32
2022-09-24T08:02:01.524Z,13.38
2022-09-24T08:03:01.576Z,13.38
2022-09-24T08:04:01.733Z,13.37
2022-09-24T08:05:01.514Z,13.44
2022-09-24T08:06:01.551Z,13.67
2022-09-24T08:07:01.498Z,13.87
2022-09-24T08:08:01.336Z,14.07
2022-09-24T08:09:01.447Z,14.16
2022-09-24T08:10:01.368Z,14.24
2022-09-24T08:11:01.484Z,14.32
2022-09-24T08:12:01.380Z,14.32
2022-09-24T08:13:01.443Z,14.17
2022-09-24T08:14:01.665Z,14.10
2022-09-24T08:15:01.623Z,14.16
2022-09-24T08:16:01.544Z,14.38
2022-09-24T08:17:01.496Z,14.65
2022-09-24T08:18:01.357Z,14.84
2022-09-24T08:19:01.456Z,14.93
2022-09-24T08:20:01.612Z,15.01
2022-09-24T08:21:01.666Z,15.09
2022-09-24T08:22:01.494Z,15.15
2022-09-24T08:23:01.428Z,15.24
2022-09-24T08:24:01.449Z,15.30
2022-09-24T08:25:01.305Z,15.26
2022-09-24T08:26:01.427Z,15.28
2022-09-24T08:27:01.235Z,15.30
2022-09-24T08:28:01.153Z,15.30
2022-09-24T08:29:01.209Z,15.30
2022-09-24T08:30:01.338Z,15.15
2022-09-24T08:31:01.176Z,15.02
2022-09-24T08:32:01.081Z,14.95
2022-09-24T08:33:01.468Z,14.87
2022-09-24T08:34:01.079Z,14.80
2022-09-24T08:35:01.037Z,14.78
2022-09-24T08:36:01.874Z,14.69
2022-09-24T08:37:01.086Z,14.61
2022-09-24T08:38:01.343Z,14.64
2022-09-24T08:39:01.011Z,14.71
2022-09-24T08:40:00.953Z,14.71
2022-09-24T08:41:00.974Z,14.74
2022-09-24T08:42:00.942Z,14.84
2022-09-24T08:43:05.499Z,14.95
2022-09-24T08:44:01.977Z,15.03
2022-09-24T08:45:00.880Z,15.12
2022-09-24T08:46:01.075Z,15.13
2022-09-24T08:47:00.988Z,14.91
2022-09-24T08:48:00.888Z,14.90
2022-09-24T08:49:00.854Z,14.87
2022-09-24T08:50:00.841Z,14.75
2022-09-24T08:51:00.853Z,14.80
2022-09-24T08:52:00.865Z,14.87
2022-09-24T08:53:00.782Z,14.95
2022-09-24T08:54:00.808Z,15.05
2022-09-24T08:55:00.761Z,15.11
2022-09-24T08:56:00.791Z,15.09
2022-09-24T08:57:00.796Z,15.08
2022-09-24T08:58:00.763Z,15.08
2022-09-24T08:59:00.788Z,15.02
2022-09-24T09:00:00.737Z,14.94
2022-09-24T09:01:00.704Z,14.99
2022-09-24T09:02:00.797Z,15.02
2022-09-24T09:03:00.834Z,15.09
2022-09-24T09:04:00.656Z,15.20
2022-09-24T09:05:00.645Z,15.31
2022-09-24T09:06:00.726Z,15.48
2022-09-24T09:07:00.716Z,15.54
2022-09-24T09:08:00.654Z,15.63
2022-09-24T09:09:07.520Z,15.68
2022-09-24T09:10:01.666Z,15.76
2022-09-24T09:11:00.576Z,15.85
2022-09-24T09:12:00.662Z,16.00
2022-09-24T09:13:00.567Z,16.15
2022-09-24T09:14:00.556Z,16.12
2022-09-24T09:15:00.656Z,16.22
2022-09-24T09:16:00.541Z,16.26
2022-09-24T09:17:00.608Z,16.31
2022-09-24T09:18:00.526Z,16.30
2022-09-24T09:19:00.527Z,16.16
2022-09-24T09:20:00.487Z,16.04
2022-09-24T09:21:00.465Z,15.99
2022-09-24T09:22:00.462Z,15.89
2022-09-24T09:23:00.563Z,15.96
2022-09-24T09:24:00.468Z,16.09
2022-09-24T09:25:03.979Z,16.23
2022-09-24T09:26:00.458Z,16.33
2022-09-24T09:27:00.648Z,16.45
2022-09-24T09:28:00.453Z,16.60
2022-09-24T09:29:00.369Z,16.74
2022-09-24T09:30:00.409Z,16.85
2022-09-24T09:31:00.456Z,16.77
2022-09-24T09:32:00.352Z,16.67
2022-09-24T09:33:00.472Z,16.62
2022-09-24T09:34:00.361Z,16.77
2022-09-24T09:35:00.461Z,16.67
2022-09-24T09:36:00.392Z,16.55
2022-09-24T09:37:00.418Z,16.41
2022-09-24T09:38:00.325Z,16.49
2022-09-24T09:39:00.368Z,16.37
2022-09-24T09:40:00.267Z,16.42
2022-09-24T09:41:00.347Z,16.55
2022-09-24T09:42:00.293Z,16.71
2022-09-24T09:43:00.253Z,16.77
2022-09-24T09:44:00.229Z,16.73
2022-09-24T09:45:00.214Z,16.90
2022-09-24T09:46:00.278Z,17.06
2022-09-24T09:47:00.411Z,17.11
2022-09-24T09:48:00.211Z,17.15
2022-09-24T09:49:00.298Z,17.25
2022-09-24T09:50:00.148Z,17.26
2022-09-24T09:51:00.135Z,17.00
2022-09-24T09:52:00.213Z,16.96
2022-09-24T09:53:00.088Z,16.88
2022-09-24T09:54:00.106Z,16.77
2022-09-24T09:55:00.125Z,16.74
2022-09-24T09:56:00.236Z,16.75
2022-09-24T09:57:00.085Z,16.78
2022-09-24T09:58:00.126Z,16.92
2022-09-24T09:59:00.124Z,17.08
2022-09-24T10:00:00.010Z,17.26
2022-09-24T10:01:00.134Z,17.44
2022-09-24T10:02:00.067Z,17.44
2022-09-24T10:03:00.037Z,17.35
2022-09-24T10:04:00.232Z,17.33
2022-09-24T10:04:59.980Z,17.32
2022-09-24T10:06:00.062Z,17.30
2022-09-24T10:07:00.203Z,17.23
2022-09-24T10:07:59.957Z,17.15
2022-09-24T10:09:00.160Z,17.10
2022-09-24T10:09:59.960Z,17.08
2022-09-24T10:10:59.960Z,17.13
2022-09-24T10:11:59.889Z,17.14
2022-09-24T10:13:00.050Z,17.13
2022-09-24T10:13:59.900Z,17.25
2022-09-24T10:14:59.880Z,17.40
2022-09-24T10:15:59.894Z,17.51
2022-09-24T10:16:59.862Z,17.41
2022-09-24T10:17:59.790Z,17.32
2022-09-24T10:18:59.831Z,17.44
2022-09-24T10:19:59.811Z,17.53
2022-09-24T10:20:59.756Z,17.55
2022-09-24T10:21:59.852Z,17.69
2022-09-24T10:22:59.855Z,17.74
2022-09-24T10:23:59.746Z,17.78
2022-09-24T10:24:59.810Z,17.70
2022-09-24T10:25:59.757Z,17.66
2022-09-24T10:26:59.744Z,17.69
2022-09-24T10:27:59.683Z,17.62
2022-09-24T10:28:59.849Z,17.62
2022-09-24T10:29:59.683Z,17.66
2022-09-24T10:30:59.808Z,17.67
2022-09-24T10:31:59.651Z,17.57
2022-09-24T10:32:59.648Z,17.50
2022-09-24T10:33:59.649Z,17.50
2022-09-24T10:34:59.577Z,17.51
2022-09-24T10:35:59.675Z,17.48
2022-09-24T10:36:59.715Z,17.41
2022-09-24T10:37:59.612Z,17.50
2022-09-24T10:38:59.583Z,17.53
2022-09-24T10:39:59.599Z,17.74
2022-09-24T10:40:59.618Z,17.89
2022-09-24T10:41:59.831Z,18.04
2022-09-24T10:42:59.655Z,18.22
2022-09-24T10:43:59.539Z,18.39
2022-09-24T10:44:59.614Z,18.52
2022-09-24T10:45:59.472Z,18.65
2022-09-24T10:46:59.720Z,18.65
2022-09-24T10:47:59.634Z,18.65
2022-09-24T10:48:59.422Z,18.72
2022-09-24T10:49:59.608Z,18.83
2022-09-24T10:50:59.523Z,18.82
2022-09-24T10:51:59.448Z,18.67
2022-09-24T10:52:59.589Z,18.47
2022-09-24T10:53:59.495Z,18.22
2022-09-24T10:54:59.504Z,18.15
2022-09-24T10:55:59.411Z,18.17
2022-09-24T10:56:59.517Z,18.17
2022-09-24T10:57:59.451Z,18.17
2022-09-24T10:58:59.337Z,18.13
2022-09-24T10:59:59.258Z,18.19
2022-09-24T11:00:59.263Z,18.21
2022-09-24T11:01:59.354Z,18.24
2022-09-24T11:02:59.285Z,18.29
2022-09-24T11:03:59.210Z,18.44
2022-09-24T11:04:59.283Z,18.58
2022-09-24T11:05:59.181Z,18.73
2022-09-24T11:06:59.388Z,18.90
2022-09-24T11:07:59.285Z,19.08
2022-09-24T11:08:59.224Z,19.14
2022-09-24T11:09:59.303Z,18.97
2022-09-24T11:10:59.290Z,18.97
2022-09-24T11:11:59.429Z,19.10
2022-09-24T11:12:59.375Z,19.24
2022-09-24T11:13:59.187Z,19.32
2022-09-24T11:14:59.186Z,19.32
2022-09-24T11:15:59.245Z,19.29
2022-09-24T11:16:59.315Z,19.46
2022-09-24T11:17:59.136Z,19.57
2022-09-24T11:18:59.081Z,19.60
2022-09-24T11:19:59.287Z,19.57
2022-09-24T11:20:59.087Z,19.50
2022-09-24T11:21:59.126Z,19.40
2022-09-24T11:22:59.093Z,19.28
2022-09-24T11:23:59.056Z,19.23
2022-09-24T11:24:59.028Z,19.17
2022-09-24T11:25:58.992Z,19.15
2022-09-24T11:26:59.907Z,19.06
2022-09-24T11:27:59.060Z,19.05
2022-09-24T11:28:59.018Z,19.02
2022-09-24T11:29:59.039Z,19.08
2022-09-24T11:30:59.196Z,19.06
2022-09-24T11:31:58.939Z,19.17
2022-09-24T11:32:59.031Z,19.24
2022-09-24T11:33:59.796Z,19.28
2022-09-24T11:34:58.981Z,19.35
2022-09-24T11:35:58.982Z,19.36
2022-09-24T11:36:58.985Z,19.40
2022-09-24T11:37:59.011Z,19.57
2022-09-24T11:38:59.011Z,19.57
2022-09-24T11:39:58.985Z,19.65
2022-09-24T11:40:58.940Z,19.70
2022-09-24T11:41:58.833Z,19.66
2022-09-24T11:42:58.802Z,19.69
2022-09-24T11:43:58.863Z,19.63
2022-09-24T11:44:58.766Z,19.55
2022-09-24T11:45:58.785Z,19.54
2022-09-24T11:46:58.931Z,19.55
2022-09-24T11:47:58.784Z,19.61
2022-09-24T11:48:58.853Z,19.54
2022-09-24T11:49:58.734Z,19.50
2022-09-24T11:50:58.734Z,19.57
2022-09-24T11:51:58.732Z,19.68
2022-09-24T11:52:58.745Z,19.76
2022-09-24T11:53:58.674Z,19.94
2022-09-24T11:54:58.657Z,20.09
2022-09-24T11:55:58.690Z,20.18
2022-09-24T11:56:58.670Z,20.25
2022-09-24T11:57:58.713Z,20.18
2022-09-24T11:58:58.707Z,20.31
2022-09-24T11:59:58.750Z,20.35
2022-09-24T12:00:58.737Z,20.16
2022-09-24T12:01:58.846Z,20.18
2022-09-24T12:02:58.780Z,20.13
2022-09-24T12:03:58.638Z,20.05
2022-09-24T12:04:58.664Z,19.76
2022-09-24T12:05:58.583Z,19.54
2022-09-24T12:06:58.602Z,19.42
2022-09-24T12:07:58.678Z,19.48
2022-09-24T12:08:58.653Z,19.55
2022-09-24T12:09:58.549Z,19.58
2022-09-24T12:10:58.530Z,19.55
2022-09-24T12:11:58.614Z,19.53
2022-09-24T12:12:58.740Z,19.53
2022-09-24T12:13:58.526Z,19.48
2022-09-24T12:14:58.841Z,19.46
2022-09-24T12:15:58.492Z,19.55
2022-09-24T12:16:58.668Z,19.60
2022-09-24T12:17:58.392Z,19.55
2022-09-24T12:18:58.782Z,19.73
2022-09-24T12:19:58.414Z,19.75
2022-09-24T12:20:58.419Z,19.79
2022-09-24T12:21:58.431Z,19.86
2022-09-24T12:22:58.381Z,19.83
2022-09-24T12:24:02.765Z,19.80
2022-09-24T12:24:58.520Z,19.84
2022-09-24T12:25:58.858Z,19.60
2022-09-24T12:26:58.540Z,19.63
2022-09-24T12:27:58.422Z,19.69
2022-09-24T12:28:58.413Z,19.69
2022-09-24T12:29:58.359Z,19.73
2022-09-24T12:30:58.492Z,19.75
2022-09-24T12:31:58.378Z,19.68
2022-09-24T12:32:58.712Z,19.58
2022-09-24T12:33:58.372Z,19.60
2022-09-24T12:34:59.026Z,19.48
2022-09-24T12:35:58.688Z,19.53
2022-09-24T12:36:58.466Z,19.60
2022-09-24T12:37:58.641Z,19.65
2022-09-24T12:38:58.158Z,19.73
2022-09-24T12:39:58.090Z,19.83
2022-09-24T12:40:58.181Z,19.73
2022-09-24T12:41:58.071Z,19.75
2022-09-24T12:42:58.049Z,19.83
2022-09-24T12:43:58.053Z,19.75
2022-09-24T12:44:58.058Z,19.80
2022-09-24T12:45:58.010Z,19.94
2022-09-24T12:46:58.092Z,19.95
2022-09-24T12:47:58.138Z,19.80
2022-09-24T12:48:57.970Z,19.83
2022-09-24T12:49:57.967Z,19.84
2022-09-24T12:50:58.012Z,19.68
2022-09-24T12:51:57.952Z,19.79
2022-09-24T12:52:57.932Z,19.88
2022-09-24T12:53:57.911Z,19.90
2022-09-24T12:54:57.901Z,19.88
2022-09-24T12:55:57.908Z,20.02
2022-09-24T12:56:57.965Z,20.06
2022-09-24T12:57:57.923Z,20.00
2022-09-24T12:58:58.626Z,20.13
2022-09-24T12:59:57.884Z,20.08
2022-09-24T13:00:57.865Z,20.06
2022-09-24T13:01:58.043Z,20.09